sensor_id;sensor_type;location;lat;lon;timestamp;pressure;altitude;pressure_sealevel;temperature;humidity
2563;BME280;1291;51.420;6.970;2023-05-10T00:00:04;99234.75;;;28.64;nan
2563;BME280;1291;51.420;6.970;2023-05-10T00:02:30;99234.13;;;28.89;nan
2563;BME280;1291;51.420;6.970;2023-05-10T00:05:01;99235.09;;;28.88;nan
2563;BME280;1291;51.420;6.970;2023-05-10T00:07:26;99233.66;;;28.82;nan
2563;BME280;1291;51.420;6.970;2023-05-10T00:09:52;99228.59;;;29.21;nan
2563;BME280;1291;51.420;6.970;2023-05-10T00:12:17;99225.28;;;29.17;nan
2563;BME280;1291;51.420;6.970;2023-05-10T00:14:43;99235.91;;;27.83;nan
2563;BME280;1291;51.420;6.970;2023-05-10T00:17:08;99227.66;;;29.63;nan
2563;BME280;1291;51.420;6.970;2023-05-10T00:19:33;99221.59;;;29.32;nan
2563;BME280;1291;51.420;6.970;2023-05-10T00:21:58;99227.34;;;29.26;nan
2563;BME280;1291;51.420;6.970;2023-05-10T00:24:24;99234.56;;;27.92;nan
2563;BME280;1291;51.420;6.970;2023-05-10T00:26:50;99236.00;;;27.97;nan
2563;BME280;1291;51.420;6.970;2023-05-10T00:29:15;99227.13;;;28.57;nan
2563;BME280;1291;51.420;6.970;2023-05-10T00:31:40;99229.72;;;28.59;nan
2563;BME280;1291;51.420;6.970;2023-05-10T00:34:06;99226.88;;;28.76;nan
2563;BME280;1291;51.420;6.970;2023-05-10T00:36:31;99232.66;;;27.78;nan
2563;BME280;1291;51.420;6.970;2023-05-10T00:38:57;99225.59;;;29.81;nan
2563;BME280;1291;51.420;6.970;2023-05-10T00:41:22;99228.97;;;28.41;nan
2563;BME280;1291;51.420;6.970;2023-05-10T00:43:53;99221.41;;;30.31;nan
2563;BME280;1291;51.420;6.970;2023-05-10T00:46:19;99234.41;;;28.39;nan
2563;BME280;1291;51.420;6.970;2023-05-10T00:48:44;99222.69;;;30.51;nan
2563;BME280;1291;51.420;6.970;2023-05-10T00:51:10;99222.00;;;29.82;nan
2563;BME280;1291;51.420;6.970;2023-05-10T00:53:35;99225.03;;;31.20;nan
2563;BME280;1291;51.420;6.970;2023-05-10T00:56:01;99224.97;;;29.07;nan
2563;BME280;1291;51.420;6.970;2023-05-10T00:58:31;99214.88;;;30.61;nan
2563;BME280;1291;51.420;6.970;2023-05-10T01:00:56;99224.28;;;29.04;nan
2563;BME280;1291;51.420;6.970;2023-05-10T01:03:22;99230.34;;;31.59;nan
2563;BME280;1291;51.420;6.970;2023-05-10T01:05:48;99229.38;;;29.64;nan
2563;BME280;1291;51.420;6.970;2023-05-10T01:08:13;99234.53;;;29.94;nan
2563;BME280;1291;51.420;6.970;2023-05-10T01:10:39;99232.69;;;30.22;nan
2563;BME280;1291;51.420;6.970;2023-05-10T01:13:05;99235.09;;;29.16;nan
2563;BME280;1291;51.420;6.970;2023-05-10T01:15:31;99241.47;;;29.84;nan
2563;BME280;1291;51.420;6.970;2023-05-10T01:17:56;99233.88;;;30.18;nan
2563;BME280;1291;51.420;6.970;2023-05-10T01:20:22;99244.78;;;28.60;nan
2563;BME280;1291;51.420;6.970;2023-05-10T01:31:52;99244.13;;;30.77;nan
2563;BME280;1291;51.420;6.970;2023-05-10T01:34:16;99233.91;;;32.43;nan
2563;BME280;1291;51.420;6.970;2023-05-10T01:39:32;99241.47;;;30.64;nan
2563;BME280;1291;51.420;6.970;2023-05-10T01:42:16;99243.03;;;30.01;nan
2563;BME280;1291;51.420;6.970;2023-05-10T01:45:08;99245.97;;;32.02;nan
2563;BME280;1291;51.420;6.970;2023-05-10T01:47:39;99245.97;;;30.51;nan
2563;BME280;1291;51.420;6.970;2023-05-10T01:50:15;99239.25;;;31.59;nan
2563;BME280;1291;51.420;6.970;2023-05-10T01:52:42;99245.31;;;31.74;nan
2563;BME280;1291;51.420;6.970;2023-05-10T01:55:14;99247.03;;;30.61;nan
2563;BME280;1291;51.420;6.970;2023-05-10T01:57:42;99252.84;;;31.06;nan
2563;BME280;1291;51.420;6.970;2023-05-10T02:00:09;99255.44;;;30.29;nan
2563;BME280;1291;51.420;6.970;2023-05-10T02:02:39;99256.88;;;30.73;nan
2563;BME280;1291;51.420;6.970;2023-05-10T02:05:06;99249.41;;;31.04;nan
2563;BME280;1291;51.420;6.970;2023-05-10T02:07:34;99239.13;;;33.36;nan
2563;BME280;1291;51.420;6.970;2023-05-10T02:10:02;99245.75;;;32.40;nan
2563;BME280;1291;51.420;6.970;2023-05-10T02:12:28;99259.25;;;31.17;nan
2563;BME280;1291;51.420;6.970;2023-05-10T02:14:54;99262.66;;;30.42;nan
2563;BME280;1291;51.420;6.970;2023-05-10T02:17:20;99261.56;;;30.31;nan
2563;BME280;1291;51.420;6.970;2023-05-10T02:19:47;99262.47;;;32.33;nan
2563;BME280;1291;51.420;6.970;2023-05-10T02:22:13;99265.72;;;29.95;nan
2563;BME280;1291;51.420;6.970;2023-05-10T02:24:41;99271.56;;;29.32;nan
2563;BME280;1291;51.420;6.970;2023-05-10T02:27:08;99269.75;;;29.88;nan
2563;BME280;1291;51.420;6.970;2023-05-10T02:29:36;99264.38;;;31.58;nan
2563;BME280;1291;51.420;6.970;2023-05-10T02:32:02;99266.34;;;31.30;nan
2563;BME280;1291;51.420;6.970;2023-05-10T02:34:28;99274.78;;;31.50;nan
2563;BME280;1291;51.420;6.970;2023-05-10T02:36:55;99267.28;;;31.79;nan
2563;BME280;1291;51.420;6.970;2023-05-10T02:39:22;99265.53;;;30.91;nan
2563;BME280;1291;51.420;6.970;2023-05-10T02:41:50;99265.06;;;31.23;nan
2563;BME280;1291;51.420;6.970;2023-05-10T02:44:20;99253.81;;;33.55;nan
2563;BME280;1291;51.420;6.970;2023-05-10T02:46:47;99265.47;;;30.53;nan
2563;BME280;1291;51.420;6.970;2023-05-10T02:49:13;99266.47;;;32.27;nan
2563;BME280;1291;51.420;6.970;2023-05-10T02:51:44;99267.38;;;31.41;nan
2563;BME280;1291;51.420;6.970;2023-05-10T02:54:18;99264.84;;;31.76;nan
2563;BME280;1291;51.420;6.970;2023-05-10T02:56:49;99259.84;;;33.13;nan
2563;BME280;1291;51.420;6.970;2023-05-10T02:59:15;99260.53;;;34.36;nan
2563;BME280;1291;51.420;6.970;2023-05-10T03:01:41;99268.84;;;31.70;nan
2563;BME280;1291;51.420;6.970;2023-05-10T03:04:06;99260.88;;;33.56;nan
2563;BME280;1291;51.420;6.970;2023-05-10T03:06:32;99278.59;;;31.09;nan
2563;BME280;1291;51.420;6.970;2023-05-10T03:08:58;99263.31;;;32.91;nan
2563;BME280;1291;51.420;6.970;2023-05-10T03:12:02;99262.28;;;33.39;nan
2563;BME280;1291;51.420;6.970;2023-05-10T03:19:57;99274.06;;;32.33;nan
2563;BME280;1291;51.420;6.970;2023-05-10T03:22:34;99280.03;;;32.61;nan
2563;BME280;1291;51.420;6.970;2023-05-10T03:25:05;99273.31;;;32.66;nan
2563;BME280;1291;51.420;6.970;2023-05-10T03:27:31;99278.91;;;33.21;nan
2563;BME280;1291;51.420;6.970;2023-05-10T03:29:57;99276.41;;;33.75;nan
2563;BME280;1291;51.420;6.970;2023-05-10T03:32:23;99291.94;;;31.97;nan
2563;BME280;1291;51.420;6.970;2023-05-10T03:34:48;99272.66;;;33.43;nan
2563;BME280;1291;51.420;6.970;2023-05-10T03:37:14;99279.56;;;31.21;nan
2563;BME280;1291;51.420;6.970;2023-05-10T03:39:39;99282.75;;;30.74;nan
2563;BME280;1291;51.420;6.970;2023-05-10T03:42:04;99275.94;;;33.24;nan
2563;BME280;1291;51.420;6.970;2023-05-10T03:44:30;99279.34;;;32.93;nan
2563;BME280;1291;51.420;6.970;2023-05-10T03:46:55;99288.09;;;33.64;nan
2563;BME280;1291;51.420;6.970;2023-05-10T03:49:22;99288.22;;;33.95;nan
2563;BME280;1291;51.420;6.970;2023-05-10T03:51:47;99293.19;;;32.99;nan
2563;BME280;1291;51.420;6.970;2023-05-10T03:54:12;99294.66;;;33.03;nan
2563;BME280;1291;51.420;6.970;2023-05-10T03:56:38;99292.44;;;32.26;nan
2563;BME280;1291;51.420;6.970;2023-05-10T03:59:03;99292.97;;;33.25;nan
2563;BME280;1291;51.420;6.970;2023-05-10T04:01:33;99293.78;;;32.21;nan
2563;BME280;1291;51.420;6.970;2023-05-10T04:03:58;99288.59;;;32.77;nan
2563;BME280;1291;51.420;6.970;2023-05-10T04:06:23;99297.19;;;30.46;nan
2563;BME280;1291;51.420;6.970;2023-05-10T04:08:49;99293.34;;;33.32;nan
2563;BME280;1291;51.420;6.970;2023-05-10T04:11:14;99300.31;;;31.92;nan
2563;BME280;1291;51.420;6.970;2023-05-10T04:13:39;99302.50;;;33.52;nan
2563;BME280;1291;51.420;6.970;2023-05-10T04:16:05;99302.53;;;33.40;nan
2563;BME280;1291;51.420;6.970;2023-05-10T04:18:30;99303.66;;;32.80;nan
2563;BME280;1291;51.420;6.970;2023-05-10T04:20:57;99303.81;;;32.30;nan
2563;BME280;1291;51.420;6.970;2023-05-10T04:23:22;99311.38;;;30.74;nan
2563;BME280;1291;51.420;6.970;2023-05-10T04:25:47;99311.66;;;30.69;nan
2563;BME280;1291;51.420;6.970;2023-05-10T04:28:13;99305.06;;;30.88;nan
2563;BME280;1291;51.420;6.970;2023-05-10T04:30:38;99304.13;;;31.02;nan
2563;BME280;1291;51.420;6.970;2023-05-10T04:33:04;99295.91;;;33.33;nan
2563;BME280;1291;51.420;6.970;2023-05-10T04:35:29;99316.31;;;31.31;nan
2563;BME280;1291;51.420;6.970;2023-05-10T04:37:54;99306.78;;;33.77;nan
2563;BME280;1291;51.420;6.970;2023-05-10T04:40:20;99308.22;;;33.02;nan
2563;BME280;1291;51.420;6.970;2023-05-10T04:42:46;99312.34;;;31.50;nan
2563;BME280;1291;51.420;6.970;2023-05-10T04:45:11;99305.25;;;32.82;nan
2563;BME280;1291;51.420;6.970;2023-05-10T04:47:37;99312.47;;;31.10;nan
2563;BME280;1291;51.420;6.970;2023-05-10T04:50:03;99312.81;;;31.81;nan
2563;BME280;1291;51.420;6.970;2023-05-10T04:52:29;99312.78;;;31.93;nan
2563;BME280;1291;51.420;6.970;2023-05-10T04:54:57;99318.81;;;31.84;nan
2563;BME280;1291;51.420;6.970;2023-05-10T04:57:22;99314.44;;;32.56;nan
2563;BME280;1291;51.420;6.970;2023-05-10T04:59:48;99318.91;;;30.42;nan
2563;BME280;1291;51.420;6.970;2023-05-10T05:02:16;99326.13;;;30.67;nan
2563;BME280;1291;51.420;6.970;2023-05-10T05:04:44;99324.03;;;31.36;nan
2563;BME280;1291;51.420;6.970;2023-05-10T05:07:09;99322.59;;;30.66;nan
2563;BME280;1291;51.420;6.970;2023-05-10T05:09:35;99319.50;;;32.71;nan
2563;BME280;1291;51.420;6.970;2023-05-10T05:12:00;99333.41;;;31.56;nan
2563;BME280;1291;51.420;6.970;2023-05-10T05:14:25;99333.06;;;30.97;nan
2563;BME280;1291;51.420;6.970;2023-05-10T05:16:52;99337.28;;;31.52;nan
2563;BME280;1291;51.420;6.970;2023-05-10T05:19:17;99334.13;;;32.56;nan
2563;BME280;1291;51.420;6.970;2023-05-10T05:21:43;99341.06;;;30.16;nan
2563;BME280;1291;51.420;6.970;2023-05-10T05:24:08;99340.56;;;31.68;nan
2563;BME280;1291;51.420;6.970;2023-05-10T05:26:33;99327.69;;;34.60;nan
2563;BME280;1291;51.420;6.970;2023-05-10T05:28:59;99341.09;;;29.46;nan
2563;BME280;1291;51.420;6.970;2023-05-10T05:31:24;99345.63;;;29.87;nan
2563;BME280;1291;51.420;6.970;2023-05-10T05:33:50;99340.28;;;30.69;nan
2563;BME280;1291;51.420;6.970;2023-05-10T05:36:15;99344.13;;;32.30;nan
2563;BME280;1291;51.420;6.970;2023-05-10T05:38:40;99357.66;;;32.77;nan
2563;BME280;1291;51.420;6.970;2023-05-10T05:41:06;99344.16;;;34.14;nan
2563;BME280;1291;51.420;6.970;2023-05-10T05:43:31;99345.31;;;33.55;nan
2563;BME280;1291;51.420;6.970;2023-05-10T05:45:56;99358.50;;;31.55;nan
2563;BME280;1291;51.420;6.970;2023-05-10T05:48:23;99351.31;;;32.78;nan
2563;BME280;1291;51.420;6.970;2023-05-10T05:50:48;99352.50;;;30.60;nan
2563;BME280;1291;51.420;6.970;2023-05-10T05:53:13;99358.63;;;32.27;nan
2563;BME280;1291;51.420;6.970;2023-05-10T05:55:39;99360.88;;;32.09;nan
2563;BME280;1291;51.420;6.970;2023-05-10T05:58:04;99363.34;;;30.31;nan
2563;BME280;1291;51.420;6.970;2023-05-10T06:00:29;99368.47;;;32.16;nan
2563;BME280;1291;51.420;6.970;2023-05-10T06:02:55;99363.84;;;34.14;nan
2563;BME280;1291;51.420;6.970;2023-05-10T06:05:20;99371.50;;;31.48;nan
2563;BME280;1291;51.420;6.970;2023-05-10T06:07:46;99366.56;;;33.13;nan
2563;BME280;1291;51.420;6.970;2023-05-10T06:10:12;99376.84;;;30.15;nan
2563;BME280;1291;51.420;6.970;2023-05-10T06:12:37;99368.50;;;33.10;nan
2563;BME280;1291;51.420;6.970;2023-05-10T06:15:03;99381.88;;;31.02;nan
2563;BME280;1291;51.420;6.970;2023-05-10T06:17:28;99387.41;;;31.88;nan
2563;BME280;1291;51.420;6.970;2023-05-10T06:19:54;99383.50;;;31.17;nan
2563;BME280;1291;51.420;6.970;2023-05-10T06:22:20;99383.09;;;32.84;nan
2563;BME280;1291;51.420;6.970;2023-05-10T06:24:47;99391.09;;;30.70;nan
2563;BME280;1291;51.420;6.970;2023-05-10T06:27:13;99395.91;;;29.96;nan
2563;BME280;1291;51.420;6.970;2023-05-10T06:29:39;99388.47;;;32.84;nan
2563;BME280;1291;51.420;6.970;2023-05-10T06:32:05;99385.63;;;33.09;nan
2563;BME280;1291;51.420;6.970;2023-05-10T06:34:30;99393.00;;;33.41;nan
2563;BME280;1291;51.420;6.970;2023-05-10T06:36:55;99397.78;;;33.38;nan
2563;BME280;1291;51.420;6.970;2023-05-10T06:39:21;99397.50;;;32.83;nan
2563;BME280;1291;51.420;6.970;2023-05-10T06:41:46;99401.09;;;31.85;nan
2563;BME280;1291;51.420;6.970;2023-05-10T06:44:11;99403.75;;;32.35;nan
2563;BME280;1291;51.420;6.970;2023-05-10T06:46:38;99413.47;;;32.73;nan
2563;BME280;1291;51.420;6.970;2023-05-10T06:49:03;99405.69;;;32.33;nan
2563;BME280;1291;51.420;6.970;2023-05-10T06:51:29;99394.09;;;33.27;nan
2563;BME280;1291;51.420;6.970;2023-05-10T06:53:54;99408.28;;;30.81;nan
2563;BME280;1291;51.420;6.970;2023-05-10T06:56:20;99414.84;;;29.50;nan
2563;BME280;1291;51.420;6.970;2023-05-10T06:58:46;99421.38;;;29.16;nan
2563;BME280;1291;51.420;6.970;2023-05-10T07:01:12;99418.69;;;29.89;nan
2563;BME280;1291;51.420;6.970;2023-05-10T07:03:37;99420.41;;;29.76;nan
2563;BME280;1291;51.420;6.970;2023-05-10T07:06:03;99420.16;;;30.37;nan
2563;BME280;1291;51.420;6.970;2023-05-10T07:08:33;99412.91;;;32.33;nan
2563;BME280;1291;51.420;6.970;2023-05-10T07:11:05;99409.50;;;32.42;nan
2563;BME280;1291;51.420;6.970;2023-05-10T07:13:32;99406.16;;;33.80;nan
2563;BME280;1291;51.420;6.970;2023-05-10T07:15:59;99412.28;;;33.13;nan
2563;BME280;1291;51.420;6.970;2023-05-10T07:18:25;99412.91;;;33.16;nan
2563;BME280;1291;51.420;6.970;2023-05-10T07:20:50;99420.34;;;30.73;nan
2563;BME280;1291;51.420;6.970;2023-05-10T07:23:16;99420.72;;;31.22;nan
2563;BME280;1291;51.420;6.970;2023-05-10T07:25:47;99412.34;;;32.64;nan
2563;BME280;1291;51.420;6.970;2023-05-10T07:28:15;99417.81;;;32.87;nan
2563;BME280;1291;51.420;6.970;2023-05-10T07:30:44;99415.44;;;31.97;nan
2563;BME280;1291;51.420;6.970;2023-05-10T07:33:11;99413.31;;;30.45;nan
2563;BME280;1291;51.420;6.970;2023-05-10T07:35:37;99418.78;;;32.01;nan
2563;BME280;1291;51.420;6.970;2023-05-10T07:38:02;99412.31;;;34.48;nan
2563;BME280;1291;51.420;6.970;2023-05-10T07:40:28;99426.16;;;32.10;nan
2563;BME280;1291;51.420;6.970;2023-05-10T07:42:53;99423.81;;;32.90;nan
2563;BME280;1291;51.420;6.970;2023-05-10T07:45:19;99421.94;;;33.96;nan
2563;BME280;1291;51.420;6.970;2023-05-10T07:47:44;99431.56;;;32.71;nan
2563;BME280;1291;51.420;6.970;2023-05-10T07:50:10;99434.03;;;31.87;nan
2563;BME280;1291;51.420;6.970;2023-05-10T07:52:35;99435.38;;;33.51;nan
2563;BME280;1291;51.420;6.970;2023-05-10T07:55:00;99433.88;;;33.00;nan
2563;BME280;1291;51.420;6.970;2023-05-10T07:57:26;99437.31;;;34.39;nan
2563;BME280;1291;51.420;6.970;2023-05-10T07:59:51;99434.38;;;34.85;nan
2563;BME280;1291;51.420;6.970;2023-05-10T08:02:16;99439.97;;;34.94;nan
2563;BME280;1291;51.420;6.970;2023-05-10T08:04:41;99446.16;;;32.43;nan
2563;BME280;1291;51.420;6.970;2023-05-10T08:07:10;99442.31;;;33.42;nan
2563;BME280;1291;51.420;6.970;2023-05-10T08:09:35;99448.38;;;31.09;nan
2563;BME280;1291;51.420;6.970;2023-05-10T08:12:01;99450.94;;;33.12;nan
2563;BME280;1291;51.420;6.970;2023-05-10T08:14:28;99452.47;;;32.79;nan
2563;BME280;1291;51.420;6.970;2023-05-10T08:16:54;99454.41;;;31.26;nan
2563;BME280;1291;51.420;6.970;2023-05-10T08:19:19;99449.81;;;33.61;nan
2563;BME280;1291;51.420;6.970;2023-05-10T08:21:46;99458.31;;;33.32;nan
2563;BME280;1291;51.420;6.970;2023-05-10T08:24:11;99452.88;;;33.09;nan
2563;BME280;1291;51.420;6.970;2023-05-10T08:26:37;99455.50;;;32.98;nan
2563;BME280;1291;51.420;6.970;2023-05-10T08:29:02;99463.41;;;35.14;nan
2563;BME280;1291;51.420;6.970;2023-05-10T08:31:27;99466.47;;;32.47;nan
2563;BME280;1291;51.420;6.970;2023-05-10T08:33:53;99470.81;;;33.56;nan
2563;BME280;1291;51.420;6.970;2023-05-10T08:36:18;99470.81;;;33.33;nan
2563;BME280;1291;51.420;6.970;2023-05-10T08:38:49;99470.78;;;32.98;nan
2563;BME280;1291;51.420;6.970;2023-05-10T08:41:14;99479.91;;;31.19;nan
2563;BME280;1291;51.420;6.970;2023-05-10T08:43:40;99475.75;;;32.91;nan
2563;BME280;1291;51.420;6.970;2023-05-10T08:46:15;99479.13;;;32.08;nan
2563;BME280;1291;51.420;6.970;2023-05-10T08:48:46;99477.19;;;33.43;nan
2563;BME280;1291;51.420;6.970;2023-05-10T08:51:14;99486.25;;;32.09;nan
2563;BME280;1291;51.420;6.970;2023-05-10T08:53:40;99486.94;;;34.14;nan
2563;BME280;1291;51.420;6.970;2023-05-10T08:56:05;99489.72;;;32.72;nan
2563;BME280;1291;51.420;6.970;2023-05-10T08:58:31;99495.63;;;33.83;nan
2563;BME280;1291;51.420;6.970;2023-05-10T09:00:57;99487.59;;;35.04;nan
2563;BME280;1291;51.420;6.970;2023-05-10T09:03:25;99488.91;;;34.12;nan
2563;BME280;1291;51.420;6.970;2023-05-10T09:05:51;99489.25;;;33.73;nan
2563;BME280;1291;51.420;6.970;2023-05-10T09:08:17;99482.81;;;33.40;nan
2563;BME280;1291;51.420;6.970;2023-05-10T09:10:45;99493.31;;;33.43;nan
2563;BME280;1291;51.420;6.970;2023-05-10T09:13:13;99501.22;;;30.53;nan
2563;BME280;1291;51.420;6.970;2023-05-10T09:15:40;99495.88;;;34.37;nan
2563;BME280;1291;51.420;6.970;2023-05-10T09:18:05;99496.81;;;35.34;nan
2563;BME280;1291;51.420;6.970;2023-05-10T09:20:31;99499.56;;;33.33;nan
2563;BME280;1291;51.420;6.970;2023-05-10T09:22:56;99506.63;;;33.80;nan
2563;BME280;1291;51.420;6.970;2023-05-10T09:25:21;99505.53;;;31.50;nan
2563;BME280;1291;51.420;6.970;2023-05-10T09:27:48;99509.38;;;34.25;nan
2563;BME280;1291;51.420;6.970;2023-05-10T09:30:25;99516.84;;;31.68;nan
2563;BME280;1291;51.420;6.970;2023-05-10T09:32:52;99519.41;;;32.08;nan
2563;BME280;1291;51.420;6.970;2023-05-10T09:35:26;99514.25;;;31.92;nan
2563;BME280;1291;51.420;6.970;2023-05-10T09:37:56;99513.78;;;32.37;nan
2563;BME280;1291;51.420;6.970;2023-05-10T09:40:23;99522.72;;;33.58;nan
2563;BME280;1291;51.420;6.970;2023-05-10T09:42:58;99524.34;;;33.25;nan
2563;BME280;1291;51.420;6.970;2023-05-10T09:45:26;99533.22;;;32.90;nan
2563;BME280;1291;51.420;6.970;2023-05-10T09:47:52;99544.25;;;29.48;nan
2563;BME280;1291;51.420;6.970;2023-05-10T09:50:19;99538.00;;;32.11;nan
2563;BME280;1291;51.420;6.970;2023-05-10T09:52:54;99530.19;;;30.61;nan
2563;BME280;1291;51.420;6.970;2023-05-10T09:55:24;99536.22;;;30.64;nan
2563;BME280;1291;51.420;6.970;2023-05-10T09:57:59;99529.16;;;33.91;nan
2563;BME280;1291;51.420;6.970;2023-05-10T10:00:24;99528.44;;;34.67;nan
2563;BME280;1291;51.420;6.970;2023-05-10T10:02:57;99539.19;;;30.87;nan
2563;BME280;1291;51.420;6.970;2023-05-10T10:05:34;99533.59;;;33.45;nan
2563;BME280;1291;51.420;6.970;2023-05-10T10:08:01;99545.34;;;30.89;nan
2563;BME280;1291;51.420;6.970;2023-05-10T10:10:28;99541.56;;;32.11;nan
2563;BME280;1291;51.420;6.970;2023-05-10T10:12:56;99531.41;;;32.41;nan
2563;BME280;1291;51.420;6.970;2023-05-10T10:15:22;99540.59;;;30.65;nan
2563;BME280;1291;51.420;6.970;2023-05-10T10:17:49;99534.09;;;31.24;nan
2563;BME280;1291;51.420;6.970;2023-05-10T10:20:16;99532.63;;;33.57;nan
2563;BME280;1291;51.420;6.970;2023-05-10T10:22:41;99546.16;;;31.31;nan
2563;BME280;1291;51.420;6.970;2023-05-10T10:25:10;99539.16;;;32.33;nan
2563;BME280;1291;51.420;6.970;2023-05-10T10:30:39;99548.41;;;32.03;nan
2563;BME280;1291;51.420;6.970;2023-05-10T10:36:01;99556.25;;;31.80;nan
2563;BME280;1291;51.420;6.970;2023-05-10T10:52:24;99564.78;;;30.37;nan
2563;BME280;1291;51.420;6.970;2023-05-10T10:55:05;99571.16;;;31.04;nan
2563;BME280;1291;51.420;6.970;2023-05-10T10:57:43;99561.94;;;30.67;nan
2563;BME280;1291;51.420;6.970;2023-05-10T11:00:38;99567.13;;;31.11;nan
2563;BME280;1291;51.420;6.970;2023-05-10T11:03:09;99561.03;;;33.26;nan
2563;BME280;1291;51.420;6.970;2023-05-10T11:05:57;99563.59;;;32.54;nan
2563;BME280;1291;51.420;6.970;2023-05-10T11:08:34;99570.50;;;31.68;nan
2563;BME280;1291;51.420;6.970;2023-05-10T11:13:44;99579.31;;;30.88;nan
2563;BME280;1291;51.420;6.970;2023-05-10T11:16:17;99574.00;;;33.32;nan
2563;BME280;1291;51.420;6.970;2023-05-10T11:21:19;99572.81;;;33.36;nan
2563;BME280;1291;51.420;6.970;2023-05-10T11:26:13;99574.78;;;31.58;nan
2563;BME280;1291;51.420;6.970;2023-05-10T11:28:48;99580.88;;;31.20;nan
2563;BME280;1291;51.420;6.970;2023-05-10T11:31:18;99581.13;;;32.72;nan
2563;BME280;1291;51.420;6.970;2023-05-10T11:33:52;99587.16;;;31.86;nan
2563;BME280;1291;51.420;6.970;2023-05-10T11:36:20;99599.53;;;31.21;nan
2563;BME280;1291;51.420;6.970;2023-05-10T11:38:47;99596.59;;;30.55;nan
2563;BME280;1291;51.420;6.970;2023-05-10T11:41:13;99591.09;;;31.55;nan
2563;BME280;1291;51.420;6.970;2023-05-10T11:43:39;99593.22;;;32.41;nan
2563;BME280;1291;51.420;6.970;2023-05-10T11:46:10;99601.19;;;32.92;nan
2563;BME280;1291;51.420;6.970;2023-05-10T11:48:40;99593.06;;;32.55;nan
2563;BME280;1291;51.420;6.970;2023-05-10T11:51:09;99588.00;;;31.61;nan
2563;BME280;1291;51.420;6.970;2023-05-10T11:53:35;99581.94;;;33.93;nan
2563;BME280;1291;51.420;6.970;2023-05-10T11:56:10;99587.53;;;34.48;nan
2563;BME280;1291;51.420;6.970;2023-05-10T11:58:37;99589.63;;;32.53;nan
2563;BME280;1291;51.420;6.970;2023-05-10T12:01:04;99594.59;;;33.33;nan
2563;BME280;1291;51.420;6.970;2023-05-10T12:03:30;99580.75;;;35.31;nan
2563;BME280;1291;51.420;6.970;2023-05-10T12:05:57;99596.34;;;32.97;nan
2563;BME280;1291;51.420;6.970;2023-05-10T12:08:24;99597.16;;;33.35;nan
2563;BME280;1291;51.420;6.970;2023-05-10T12:10:52;99594.78;;;32.69;nan
2563;BME280;1291;51.420;6.970;2023-05-10T12:13:19;99599.75;;;32.62;nan
2563;BME280;1291;51.420;6.970;2023-05-10T12:15:45;99605.66;;;30.82;nan
2563;BME280;1291;51.420;6.970;2023-05-10T12:18:12;99596.13;;;31.32;nan
2563;BME280;1291;51.420;6.970;2023-05-10T12:20:39;99590.97;;;32.09;nan
2563;BME280;1291;51.420;6.970;2023-05-10T12:23:04;99612.00;;;30.38;nan
2563;BME280;1291;51.420;6.970;2023-05-10T12:25:38;99599.06;;;32.71;nan
2563;BME280;1291;51.420;6.970;2023-05-10T12:28:06;99612.75;;;31.51;nan
2563;BME280;1291;51.420;6.970;2023-05-10T12:30:36;99608.94;;;34.16;nan
2563;BME280;1291;51.420;6.970;2023-05-10T12:33:12;99602.22;;;34.33;nan
2563;BME280;1291;51.420;6.970;2023-05-10T12:35:44;99606.06;;;33.95;nan
2563;BME280;1291;51.420;6.970;2023-05-10T12:38:28;99597.94;;;34.19;nan
2563;BME280;1291;51.420;6.970;2023-05-10T12:40:59;99598.88;;;31.98;nan
2563;BME280;1291;51.420;6.970;2023-05-10T12:43:24;99590.91;;;34.05;nan
2563;BME280;1291;51.420;6.970;2023-05-10T12:45:50;99600.75;;;33.46;nan
2563;BME280;1291;51.420;6.970;2023-05-10T12:48:16;99608.00;;;33.57;nan
2563;BME280;1291;51.420;6.970;2023-05-10T12:50:41;99596.88;;;35.21;nan
2563;BME280;1291;51.420;6.970;2023-05-10T12:53:06;99606.63;;;35.34;nan
2563;BME280;1291;51.420;6.970;2023-05-10T12:55:32;99608.50;;;35.22;nan
2563;BME280;1291;51.420;6.970;2023-05-10T12:57:57;99603.38;;;36.14;nan
2563;BME280;1291;51.420;6.970;2023-05-10T13:00:22;99605.03;;;34.20;nan
2563;BME280;1291;51.420;6.970;2023-05-10T13:02:48;99615.69;;;33.26;nan
2563;BME280;1291;51.420;6.970;2023-05-10T13:05:13;99613.09;;;32.25;nan
2563;BME280;1291;51.420;6.970;2023-05-10T13:07:41;99606.38;;;35.37;nan
2563;BME280;1291;51.420;6.970;2023-05-10T13:10:09;99613.25;;;32.86;nan
2563;BME280;1291;51.420;6.970;2023-05-10T13:12:34;99616.41;;;33.04;nan
2563;BME280;1291;51.420;6.970;2023-05-10T13:15:00;99605.88;;;36.98;nan
2563;BME280;1291;51.420;6.970;2023-05-10T13:17:25;99616.66;;;35.43;nan
2563;BME280;1291;51.420;6.970;2023-05-10T13:19:53;99602.47;;;34.41;nan
2563;BME280;1291;51.420;6.970;2023-05-10T13:22:19;99604.97;;;35.10;nan
2563;BME280;1291;51.420;6.970;2023-05-10T13:24:44;99603.97;;;36.39;nan
2563;BME280;1291;51.420;6.970;2023-05-10T13:27:10;99612.81;;;35.24;nan
2563;BME280;1291;51.420;6.970;2023-05-10T13:29:35;99608.63;;;36.58;nan
2563;BME280;1291;51.420;6.970;2023-05-10T13:32:00;99615.50;;;35.57;nan
2563;BME280;1291;51.420;6.970;2023-05-10T13:34:26;99605.41;;;34.26;nan
2563;BME280;1291;51.420;6.970;2023-05-10T13:36:52;99605.16;;;34.75;nan
2563;BME280;1291;51.420;6.970;2023-05-10T13:39:19;99602.75;;;34.02;nan
2563;BME280;1291;51.420;6.970;2023-05-10T13:41:44;99607.28;;;35.26;nan
2563;BME280;1291;51.420;6.970;2023-05-10T13:44:12;99615.13;;;33.94;nan
2563;BME280;1291;51.420;6.970;2023-05-10T13:46:38;99614.34;;;33.80;nan
2563;BME280;1291;51.420;6.970;2023-05-10T13:49:04;99620.16;;;33.63;nan
2563;BME280;1291;51.420;6.970;2023-05-10T13:51:29;99614.47;;;34.25;nan
2563;BME280;1291;51.420;6.970;2023-05-10T13:53:54;99613.69;;;32.80;nan
2563;BME280;1291;51.420;6.970;2023-05-10T13:56:19;99605.22;;;33.10;nan
2563;BME280;1291;51.420;6.970;2023-05-10T13:58:45;99600.31;;;34.11;nan
2563;BME280;1291;51.420;6.970;2023-05-10T14:01:13;99596.34;;;35.28;nan
2563;BME280;1291;51.420;6.970;2023-05-10T14:03:38;99592.56;;;37.26;nan
2563;BME280;1291;51.420;6.970;2023-05-10T14:06:07;99592.47;;;35.09;nan
2563;BME280;1291;51.420;6.970;2023-05-10T14:08:33;99591.16;;;34.81;nan
2563;BME280;1291;51.420;6.970;2023-05-10T14:10:59;99595.91;;;33.27;nan
2563;BME280;1291;51.420;6.970;2023-05-10T14:13:25;99592.13;;;34.12;nan
2563;BME280;1291;51.420;6.970;2023-05-10T14:15:50;99591.44;;;34.21;nan
2563;BME280;1291;51.420;6.970;2023-05-10T14:18:16;99575.59;;;37.53;nan
2563;BME280;1291;51.420;6.970;2023-05-10T14:20:41;99575.84;;;37.99;nan
2563;BME280;1291;51.420;6.970;2023-05-10T14:23:06;99580.88;;;36.04;nan
2563;BME280;1291;51.420;6.970;2023-05-10T14:25:32;99585.88;;;35.34;nan
2563;BME280;1291;51.420;6.970;2023-05-10T14:28:01;99594.88;;;35.56;nan